This is the latest recevied weather packets stored in our database for station/object OE-11190. If no packets are shown the sender has not sent any weather packets the latest 10 day(s).
| Time | Temp. | Humidity | Pressure | Rain* | Wind** | Luminosity | Snow |
|---|---|---|---|---|---|---|---|
| 1788334507 | 22.78° C | 54% | 1020.7 hPa | 0 mm | - | 447 W/m² | - |
| 1788333908 | 22.22° C | 55% | 1020.6 hPa | 0 mm | - | 409 W/m² | - |
| 1788333201 | 22.22° C | 56% | 1020.4 hPa | 0 mm | - | 402 W/m² | - |
| 1788332707 | 21.67° C | 57% | 1020.4 hPa | 0 mm | - | 394 W/m² | - |
| 1788332107 | 21.11° C | 59% | 1020.7 hPa | 0 mm | - | 326 W/m² | - |
| 1788331281 | 21.11° C | 57% | 1020.7 hPa | 0 mm | - | 326 W/m² | - |
| 1788330308 | 18.33° C | 69% | 1020.7 hPa | 0 mm | - | 250 W/m² | - |
| 1788329481 | 17.78° C | 71% | 1020.7 hPa | 0 mm | - | 129 W/m² | - |
| 1788329108 | 17.22° C | 73% | 1020.8 hPa | 0 mm | - | 106 W/m² | - |
| 1788328508 | 16.67° C | 73% | 1020.8 hPa | 0 mm | - | 61 W/m² | - |
| 1788327681 | 16.67° C | 73% | 1020.8 hPa | 0 mm | - | 53 W/m² | - |
| 1788327308 | 16.67° C | 73% | 1020.8 hPa | 0 mm | - | 45 W/m² | - |
| 1788326707 | 16.67° C | 72% | 1020.8 hPa | 0 mm | - | 38 W/m² | - |
| 1788325888 | 16.67° C | 71% | 1020.8 hPa | 0 mm | - | 30 W/m² | - |
| 1788325507 | 16.67° C | 68% | 1020.8 hPa | 0 mm | - | 30 W/m² | - |
| 1788324907 | 16.67° C | 67% | 1020.8 hPa | 0 mm | - | 15 W/m² | - |
| 1788324081 | 16.67° C | 67% | 1020.8 hPa | 0 mm | - | 8 W/m² | - |
| 1788323708 | 16.67° C | 68% | 1020.8 hPa | 0 mm | - | 0 W/m² | - |
| 1788323108 | 16.67° C | 70% | 1020.8 hPa | 0 mm | - | 0 W/m² | - |
| 1788322281 | 17.22° C | 69% | 1021.1 hPa | 0 mm | - | 0 W/m² | - |
| 1788321907 | 17.22° C | 66% | 1021 hPa | 0 mm | - | 0 W/m² | - |
| 1788321308 | 17.22° C | 67% | 1021.1 hPa | 0 mm | - | 0 W/m² | - |
| 1788320708 | 17.22° C | 67% | 1021 hPa | 0 mm | - | 0 W/m² | - |
| 1788320107 | 17.22° C | 66% | 1020.8 hPa | 0 mm | - | 0 W/m² | - |
| 1788319507 | 17.22° C | 65% | 1020.8 hPa | 0 mm | - | 0 W/m² | - |
* Rain latest hour (hover to see other rain measurements)
** Current wind speed in m/s (hover to see current wind gust speed)